sensor_id;sensor_type;location;lat;lon;timestamp;temperature;humidity
22321;DHT22;11328;53.928;18.522;2023-01-29T00:02:19;0.30;99.90
22321;DHT22;11328;53.928;18.522;2023-01-29T00:04:46;0.40;99.90
22321;DHT22;11328;53.928;18.522;2023-01-29T00:07:14;0.40;99.90
22321;DHT22;11328;53.928;18.522;2023-01-29T00:09:41;0.50;99.90
22321;DHT22;11328;53.928;18.522;2023-01-29T00:12:08;0.40;99.90
22321;DHT22;11328;53.928;18.522;2023-01-29T00:14:36;0.50;99.90
22321;DHT22;11328;53.928;18.522;2023-01-29T00:17:03;0.40;99.90
22321;DHT22;11328;53.928;18.522;2023-01-29T00:19:30;0.40;99.90
22321;DHT22;11328;53.928;18.522;2023-01-29T00:21:57;0.50;99.90
22321;DHT22;11328;53.928;18.522;2023-01-29T00:24:25;0.50;99.90
22321;DHT22;11328;53.928;18.522;2023-01-29T00:26:52;0.50;99.90
22321;DHT22;11328;53.928;18.522;2023-01-29T00:29:19;0.40;99.90
22321;DHT22;11328;53.928;18.522;2023-01-29T00:31:47;0.40;99.90
22321;DHT22;11328;53.928;18.522;2023-01-29T00:34:15;0.40;99.90
22321;DHT22;11328;53.928;18.522;2023-01-29T00:36:42;0.40;99.90
22321;DHT22;11328;53.928;18.522;2023-01-29T00:39:11;0.40;99.90
22321;DHT22;11328;53.928;18.522;2023-01-29T00:41:38;0.50;99.90
22321;DHT22;11328;53.928;18.522;2023-01-29T00:44:24;0.50;99.90
22321;DHT22;11328;53.928;18.522;2023-01-29T00:47:10;0.50;99.90
22321;DHT22;11328;53.928;18.522;2023-01-29T00:49:56;0.50;99.90
22321;DHT22;11328;53.928;18.522;2023-01-29T00:52:23;0.40;99.90
22321;DHT22;11328;53.928;18.522;2023-01-29T00:54:58;0.40;99.90
22321;DHT22;11328;53.928;18.522;2023-01-29T00:57:28;0.40;99.90
22321;DHT22;11328;53.928;18.522;2023-01-29T00:59:57;0.40;99.90
22321;DHT22;11328;53.928;18.522;2023-01-29T01:02:24;0.40;99.90
22321;DHT22;11328;53.928;18.522;2023-01-29T01:05:12;0.40;99.90
22321;DHT22;11328;53.928;18.522;2023-01-29T01:07:50;0.40;99.90
22321;DHT22;11328;53.928;18.522;2023-01-29T01:10:24;0.40;99.90
22321;DHT22;11328;53.928;18.522;2023-01-29T01:12:59;0.40;99.90
22321;DHT22;11328;53.928;18.522;2023-01-29T01:15:35;0.40;99.90
22321;DHT22;11328;53.928;18.522;2023-01-29T01:18:04;0.40;99.90
22321;DHT22;11328;53.928;18.522;2023-01-29T01:20:33;0.40;99.90
22321;DHT22;11328;53.928;18.522;2023-01-29T01:23:02;0.40;99.90
22321;DHT22;11328;53.928;18.522;2023-01-29T01:25:29;0.40;99.90
22321;DHT22;11328;53.928;18.522;2023-01-29T01:27:57;0.40;99.90
22321;DHT22;11328;53.928;18.522;2023-01-29T01:30:25;0.40;99.90
22321;DHT22;11328;53.928;18.522;2023-01-29T01:32:52;0.40;99.90
22321;DHT22;11328;53.928;18.522;2023-01-29T01:35:19;0.60;99.90
22321;DHT22;11328;53.928;18.522;2023-01-29T01:37:47;0.60;99.90
22321;DHT22;11328;53.928;18.522;2023-01-29T01:40:17;0.50;99.90
22321;DHT22;11328;53.928;18.522;2023-01-29T01:42:50;0.50;99.90
22321;DHT22;11328;53.928;18.522;2023-01-29T01:45:32;0.60;99.90
22321;DHT22;11328;53.928;18.522;2023-01-29T01:48:17;0.50;99.90
22321;DHT22;11328;53.928;18.522;2023-01-29T01:50:57;0.50;99.90
22321;DHT22;11328;53.928;18.522;2023-01-29T01:54:17;0.50;99.90
22321;DHT22;11328;53.928;18.522;2023-01-29T01:56:51;0.50;99.90
22321;DHT22;11328;53.928;18.522;2023-01-29T01:59:31;0.50;99.90
22321;DHT22;11328;53.928;18.522;2023-01-29T02:02:00;0.50;99.90
22321;DHT22;11328;53.928;18.522;2023-01-29T02:04:49;0.50;99.90
22321;DHT22;11328;53.928;18.522;2023-01-29T02:07:41;0.50;99.90
22321;DHT22;11328;53.928;18.522;2023-01-29T02:10:33;0.50;99.90
22321;DHT22;11328;53.928;18.522;2023-01-29T02:13:06;0.50;99.90
22321;DHT22;11328;53.928;18.522;2023-01-29T02:15:34;0.60;99.90
22321;DHT22;11328;53.928;18.522;2023-01-29T02:18:02;0.60;99.90
22321;DHT22;11328;53.928;18.522;2023-01-29T02:20:30;0.60;99.90
22321;DHT22;11328;53.928;18.522;2023-01-29T02:23:34;0.50;99.90
22321;DHT22;11328;53.928;18.522;2023-01-29T02:29:42;0.60;99.90
22321;DHT22;11328;53.928;18.522;2023-01-29T02:32:52;0.60;99.90
22321;DHT22;11328;53.928;18.522;2023-01-29T02:35:49;0.50;99.90
22321;DHT22;11328;53.928;18.522;2023-01-29T02:41:26;0.60;99.90
22321;DHT22;11328;53.928;18.522;2023-01-29T02:47:16;0.50;99.90
22321;DHT22;11328;53.928;18.522;2023-01-29T02:49:49;0.60;99.90
22321;DHT22;11328;53.928;18.522;2023-01-29T02:52:28;0.50;99.90
22321;DHT22;11328;53.928;18.522;2023-01-29T02:55:24;0.60;99.90
22321;DHT22;11328;53.928;18.522;2023-01-29T03:01:27;0.60;99.90
22321;DHT22;11328;53.928;18.522;2023-01-29T03:04:03;0.70;99.90
22321;DHT22;11328;53.928;18.522;2023-01-29T03:06:49;0.80;99.90
22321;DHT22;11328;53.928;18.522;2023-01-29T03:09:32;0.80;99.90
22321;DHT22;11328;53.928;18.522;2023-01-29T03:12:12;0.80;99.90
22321;DHT22;11328;53.928;18.522;2023-01-29T03:15:07;0.70;99.90
22321;DHT22;11328;53.928;18.522;2023-01-29T03:17:46;0.80;99.90
22321;DHT22;11328;53.928;18.522;2023-01-29T03:20:17;0.90;99.90
22321;DHT22;11328;53.928;18.522;2023-01-29T03:22:54;0.90;99.90
22321;DHT22;11328;53.928;18.522;2023-01-29T03:25:25;1.00;99.90
22321;DHT22;11328;53.928;18.522;2023-01-29T03:28:16;0.90;99.90
22321;DHT22;11328;53.928;18.522;2023-01-29T03:31:05;0.90;99.90
22321;DHT22;11328;53.928;18.522;2023-01-29T03:34:10;1.00;99.90
22321;DHT22;11328;53.928;18.522;2023-01-29T03:36:53;1.00;99.90
22321;DHT22;11328;53.928;18.522;2023-01-29T03:39:25;1.00;99.90
22321;DHT22;11328;53.928;18.522;2023-01-29T03:47:57;0.90;99.90
22321;DHT22;11328;53.928;18.522;2023-01-29T03:53:24;1.00;99.90
22321;DHT22;11328;53.928;18.522;2023-01-29T03:59:20;1.00;99.90
22321;DHT22;11328;53.928;18.522;2023-01-29T04:01:58;1.00;99.90
22321;DHT22;11328;53.928;18.522;2023-01-29T04:04:33;1.00;99.90
22321;DHT22;11328;53.928;18.522;2023-01-29T04:07:10;1.00;99.90
22321;DHT22;11328;53.928;18.522;2023-01-29T04:09:58;1.00;99.90
22321;DHT22;11328;53.928;18.522;2023-01-29T04:12:54;1.00;99.90
22321;DHT22;11328;53.928;18.522;2023-01-29T04:15:29;1.00;99.90
22321;DHT22;11328;53.928;18.522;2023-01-29T04:18:00;1.00;99.90
22321;DHT22;11328;53.928;18.522;2023-01-29T04:20:29;1.00;99.90
22321;DHT22;11328;53.928;18.522;2023-01-29T04:22:56;1.00;99.90
22321;DHT22;11328;53.928;18.522;2023-01-29T04:25:30;1.00;99.90
22321;DHT22;11328;53.928;18.522;2023-01-29T04:28:08;1.00;99.90
22321;DHT22;11328;53.928;18.522;2023-01-29T04:31:05;1.00;99.90
22321;DHT22;11328;53.928;18.522;2023-01-29T04:39:29;1.00;99.90
22321;DHT22;11328;53.928;18.522;2023-01-29T04:45:07;0.90;99.90
22321;DHT22;11328;53.928;18.522;2023-01-29T04:47:56;1.00;99.90
22321;DHT22;11328;53.928;18.522;2023-01-29T04:50:38;0.90;99.90
22321;DHT22;11328;53.928;18.522;2023-01-29T04:56:00;0.90;99.90
22321;DHT22;11328;53.928;18.522;2023-01-29T04:58:42;0.90;99.90
22321;DHT22;11328;53.928;18.522;2023-01-29T05:01:15;1.00;99.90
22321;DHT22;11328;53.928;18.522;2023-01-29T05:03:49;1.00;99.90
22321;DHT22;11328;53.928;18.522;2023-01-29T05:06:19;0.90;99.90
22321;DHT22;11328;53.928;18.522;2023-01-29T05:08:49;1.00;99.90
22321;DHT22;11328;53.928;18.522;2023-01-29T05:11:20;1.00;99.90
22321;DHT22;11328;53.928;18.522;2023-01-29T05:13:49;1.00;99.90
22321;DHT22;11328;53.928;18.522;2023-01-29T05:16:30;1.00;99.90
22321;DHT22;11328;53.928;18.522;2023-01-29T05:19:11;0.90;99.90
22321;DHT22;11328;53.928;18.522;2023-01-29T05:21:41;0.90;99.90
22321;DHT22;11328;53.928;18.522;2023-01-29T05:24:18;0.90;99.90
22321;DHT22;11328;53.928;18.522;2023-01-29T05:26:49;0.90;99.90
22321;DHT22;11328;53.928;18.522;2023-01-29T05:29:41;0.90;99.90
22321;DHT22;11328;53.928;18.522;2023-01-29T05:32:11;0.90;99.90
22321;DHT22;11328;53.928;18.522;2023-01-29T05:34:38;1.00;99.90
22321;DHT22;11328;53.928;18.522;2023-01-29T05:37:06;1.00;99.90
22321;DHT22;11328;53.928;18.522;2023-01-29T05:39:34;1.00;99.90
22321;DHT22;11328;53.928;18.522;2023-01-29T05:42:01;1.00;99.90
22321;DHT22;11328;53.928;18.522;2023-01-29T05:44:28;1.00;99.90
22321;DHT22;11328;53.928;18.522;2023-01-29T05:46:55;1.00;99.90
22321;DHT22;11328;53.928;18.522;2023-01-29T05:49:23;1.00;99.90
22321;DHT22;11328;53.928;18.522;2023-01-29T05:51:51;1.00;99.90
22321;DHT22;11328;53.928;18.522;2023-01-29T05:54:18;1.00;99.90
22321;DHT22;11328;53.928;18.522;2023-01-29T05:56:46;1.10;99.90
22321;DHT22;11328;53.928;18.522;2023-01-29T05:59:14;1.10;99.90
22321;DHT22;11328;53.928;18.522;2023-01-29T06:01:42;1.10;99.90
22321;DHT22;11328;53.928;18.522;2023-01-29T06:04:09;1.10;99.90
22321;DHT22;11328;53.928;18.522;2023-01-29T06:06:36;1.00;99.90
22321;DHT22;11328;53.928;18.522;2023-01-29T06:09:03;1.00;99.90
22321;DHT22;11328;53.928;18.522;2023-01-29T06:11:30;1.10;99.90
22321;DHT22;11328;53.928;18.522;2023-01-29T06:13:58;1.10;99.90
22321;DHT22;11328;53.928;18.522;2023-01-29T06:16:25;1.20;99.90
22321;DHT22;11328;53.928;18.522;2023-01-29T06:18:52;1.20;99.90
22321;DHT22;11328;53.928;18.522;2023-01-29T06:21:19;1.20;99.90
22321;DHT22;11328;53.928;18.522;2023-01-29T06:23:46;1.20;99.90
22321;DHT22;11328;53.928;18.522;2023-01-29T06:26:14;1.20;99.90
22321;DHT22;11328;53.928;18.522;2023-01-29T06:28:49;1.30;99.90
22321;DHT22;11328;53.928;18.522;2023-01-29T06:31:16;1.30;99.90
22321;DHT22;11328;53.928;18.522;2023-01-29T06:34:05;1.30;99.90
22321;DHT22;11328;53.928;18.522;2023-01-29T06:36:33;1.40;99.90
22321;DHT22;11328;53.928;18.522;2023-01-29T06:39:01;1.40;99.90
22321;DHT22;11328;53.928;18.522;2023-01-29T06:41:28;1.40;99.90
22321;DHT22;11328;53.928;18.522;2023-01-29T06:43:55;1.30;99.90
22321;DHT22;11328;53.928;18.522;2023-01-29T06:46:22;1.30;99.90
22321;DHT22;11328;53.928;18.522;2023-01-29T06:48:49;1.30;99.90
22321;DHT22;11328;53.928;18.522;2023-01-29T06:51:16;1.40;99.90
22321;DHT22;11328;53.928;18.522;2023-01-29T06:53:44;1.40;99.90
22321;DHT22;11328;53.928;18.522;2023-01-29T06:56:12;1.50;99.90
22321;DHT22;11328;53.928;18.522;2023-01-29T06:58:40;1.50;99.90
22321;DHT22;11328;53.928;18.522;2023-01-29T07:01:10;1.50;99.90
22321;DHT22;11328;53.928;18.522;2023-01-29T07:17:01;1.50;99.90
22321;DHT22;11328;53.928;18.522;2023-01-29T07:19:29;2.10;99.90
22321;DHT22;11328;53.928;18.522;2023-01-29T07:21:56;2.00;99.90
22321;DHT22;11328;53.928;18.522;2023-01-29T07:24:23;1.80;99.90
22321;DHT22;11328;53.928;18.522;2023-01-29T07:26:51;1.70;99.90
22321;DHT22;11328;53.928;18.522;2023-01-29T07:29:19;1.70;99.90
22321;DHT22;11328;53.928;18.522;2023-01-29T07:31:46;1.70;99.90
22321;DHT22;11328;53.928;18.522;2023-01-29T07:34:13;1.70;99.90
22321;DHT22;11328;53.928;18.522;2023-01-29T07:36:40;1.70;99.90
22321;DHT22;11328;53.928;18.522;2023-01-29T07:39:08;1.70;99.90
22321;DHT22;11328;53.928;18.522;2023-01-29T07:41:35;1.70;99.90
22321;DHT22;11328;53.928;18.522;2023-01-29T07:44:03;1.70;99.90
22321;DHT22;11328;53.928;18.522;2023-01-29T07:46:30;1.80;99.90
22321;DHT22;11328;53.928;18.522;2023-01-29T07:48:57;1.80;99.90
22321;DHT22;11328;53.928;18.522;2023-01-29T07:51:24;1.70;99.90
22321;DHT22;11328;53.928;18.522;2023-01-29T07:53:52;1.80;99.90
22321;DHT22;11328;53.928;18.522;2023-01-29T07:56:20;1.80;99.90
22321;DHT22;11328;53.928;18.522;2023-01-29T07:58:47;1.80;99.90
22321;DHT22;11328;53.928;18.522;2023-01-29T08:01:14;1.70;99.90
22321;DHT22;11328;53.928;18.522;2023-01-29T08:03:41;1.80;99.90
22321;DHT22;11328;53.928;18.522;2023-01-29T08:06:08;1.80;99.90
22321;DHT22;11328;53.928;18.522;2023-01-29T08:08:35;1.70;99.90
22321;DHT22;11328;53.928;18.522;2023-01-29T08:11:03;1.80;99.90
22321;DHT22;11328;53.928;18.522;2023-01-29T08:13:31;1.80;99.90
22321;DHT22;11328;53.928;18.522;2023-01-29T08:16:00;1.80;99.90
22321;DHT22;11328;53.928;18.522;2023-01-29T08:18:29;1.80;99.90
22321;DHT22;11328;53.928;18.522;2023-01-29T08:21:00;1.90;99.90
22321;DHT22;11328;53.928;18.522;2023-01-29T08:23:28;1.80;99.90
22321;DHT22;11328;53.928;18.522;2023-01-29T08:25:56;1.80;99.90
22321;DHT22;11328;53.928;18.522;2023-01-29T08:28:23;1.80;99.90
22321;DHT22;11328;53.928;18.522;2023-01-29T08:30:51;1.80;99.90
22321;DHT22;11328;53.928;18.522;2023-01-29T08:33:19;1.80;99.90
22321;DHT22;11328;53.928;18.522;2023-01-29T08:35:59;1.70;99.90
22321;DHT22;11328;53.928;18.522;2023-01-29T08:38:26;1.80;99.90
22321;DHT22;11328;53.928;18.522;2023-01-29T08:40:53;1.70;99.90
22321;DHT22;11328;53.928;18.522;2023-01-29T08:43:20;1.70;99.90
22321;DHT22;11328;53.928;18.522;2023-01-29T08:45:47;1.70;99.90
22321;DHT22;11328;53.928;18.522;2023-01-29T08:48:14;1.80;99.90
22321;DHT22;11328;53.928;18.522;2023-01-29T08:50:42;1.80;99.90
22321;DHT22;11328;53.928;18.522;2023-01-29T08:53:09;1.90;99.90
22321;DHT22;11328;53.928;18.522;2023-01-29T08:55:40;1.70;99.90
22321;DHT22;11328;53.928;18.522;2023-01-29T08:58:09;1.80;99.90
22321;DHT22;11328;53.928;18.522;2023-01-29T09:00:38;1.80;99.90
22321;DHT22;11328;53.928;18.522;2023-01-29T09:03:05;1.90;99.90
22321;DHT22;11328;53.928;18.522;2023-01-29T09:05:34;1.80;99.90
22321;DHT22;11328;53.928;18.522;2023-01-29T09:08:03;1.80;99.90
22321;DHT22;11328;53.928;18.522;2023-01-29T09:10:31;1.80;99.90
22321;DHT22;11328;53.928;18.522;2023-01-29T09:12:58;1.80;99.90
22321;DHT22;11328;53.928;18.522;2023-01-29T09:15:26;1.90;99.90
22321;DHT22;11328;53.928;18.522;2023-01-29T09:17:53;2.00;99.90
22321;DHT22;11328;53.928;18.522;2023-01-29T09:20:21;2.10;99.90
22321;DHT22;11328;53.928;18.522;2023-01-29T09:22:48;2.10;99.90
22321;DHT22;11328;53.928;18.522;2023-01-29T09:25:17;2.20;99.90
22321;DHT22;11328;53.928;18.522;2023-01-29T09:27:45;2.10;99.90
22321;DHT22;11328;53.928;18.522;2023-01-29T09:30:13;2.20;99.90
22321;DHT22;11328;53.928;18.522;2023-01-29T09:32:40;2.20;99.90
22321;DHT22;11328;53.928;18.522;2023-01-29T09:35:23;2.20;99.90
22321;DHT22;11328;53.928;18.522;2023-01-29T09:37:50;2.20;99.90
22321;DHT22;11328;53.928;18.522;2023-01-29T09:43:03;2.20;99.90
22321;DHT22;11328;53.928;18.522;2023-01-29T09:46:03;2.30;99.90
22321;DHT22;11328;53.928;18.522;2023-01-29T09:48:40;2.30;99.90
22321;DHT22;11328;53.928;18.522;2023-01-29T09:51:18;2.30;99.90
22321;DHT22;11328;53.928;18.522;2023-01-29T09:56:54;2.30;99.90
22321;DHT22;11328;53.928;18.522;2023-01-29T09:59:25;2.20;99.90
22321;DHT22;11328;53.928;18.522;2023-01-29T10:02:01;2.30;99.90
22321;DHT22;11328;53.928;18.522;2023-01-29T10:10:48;2.20;99.90
22321;DHT22;11328;53.928;18.522;2023-01-29T10:24:50;2.10;99.90
22321;DHT22;11328;53.928;18.522;2023-01-29T10:27:39;2.10;99.90
22321;DHT22;11328;53.928;18.522;2023-01-29T10:32:58;2.10;99.90
22321;DHT22;11328;53.928;18.522;2023-01-29T10:35:33;2.10;99.90
22321;DHT22;11328;53.928;18.522;2023-01-29T10:50:03;2.00;99.90
22321;DHT22;11328;53.928;18.522;2023-01-29T10:55:29;2.00;99.90
22321;DHT22;11328;53.928;18.522;2023-01-29T11:00:38;2.10;99.90
22321;DHT22;11328;53.928;18.522;2023-01-29T11:03:31;2.10;99.90
22321;DHT22;11328;53.928;18.522;2023-01-29T11:06:38;2.10;99.90
22321;DHT22;11328;53.928;18.522;2023-01-29T11:17:27;2.20;99.90
22321;DHT22;11328;53.928;18.522;2023-01-29T11:19:57;2.10;99.90
22321;DHT22;11328;53.928;18.522;2023-01-29T11:22:26;2.20;99.90
22321;DHT22;11328;53.928;18.522;2023-01-29T11:25:19;2.20;99.90
22321;DHT22;11328;53.928;18.522;2023-01-29T11:27:55;2.20;99.90
22321;DHT22;11328;53.928;18.522;2023-01-29T11:30:40;2.10;99.90
22321;DHT22;11328;53.928;18.522;2023-01-29T11:33:16;2.20;99.90
22321;DHT22;11328;53.928;18.522;2023-01-29T11:35:45;2.30;99.90
22321;DHT22;11328;53.928;18.522;2023-01-29T11:38:22;2.20;99.90
22321;DHT22;11328;53.928;18.522;2023-01-29T11:40:52;2.30;99.90
22321;DHT22;11328;53.928;18.522;2023-01-29T11:43:30;2.30;99.90
22321;DHT22;11328;53.928;18.522;2023-01-29T11:46:04;2.30;99.90
22321;DHT22;11328;53.928;18.522;2023-01-29T11:48:47;2.30;99.90
22321;DHT22;11328;53.928;18.522;2023-01-29T11:51:38;2.40;99.90
22321;DHT22;11328;53.928;18.522;2023-01-29T11:54:14;2.40;99.90
22321;DHT22;11328;53.928;18.522;2023-01-29T11:56:46;2.40;99.90
22321;DHT22;11328;53.928;18.522;2023-01-29T12:02:22;2.40;99.90
22321;DHT22;11328;53.928;18.522;2023-01-29T12:07:43;2.40;99.90
22321;DHT22;11328;53.928;18.522;2023-01-29T12:10:38;2.40;99.90
22321;DHT22;11328;53.928;18.522;2023-01-29T12:15:42;2.30;99.90
22321;DHT22;11328;53.928;18.522;2023-01-29T12:18:26;2.40;99.90
22321;DHT22;11328;53.928;18.522;2023-01-29T12:21:02;2.40;99.90
22321;DHT22;11328;53.928;18.522;2023-01-29T12:23:52;2.30;99.90
22321;DHT22;11328;53.928;18.522;2023-01-29T12:26:48;2.30;99.90
22321;DHT22;11328;53.928;18.522;2023-01-29T12:30:30;2.30;99.90
22321;DHT22;11328;53.928;18.522;2023-01-29T12:32:56;2.50;99.90
22321;DHT22;11328;53.928;18.522;2023-01-29T12:35:40;2.50;99.90
22321;DHT22;11328;53.928;18.522;2023-01-29T12:38:20;2.60;99.90
22321;DHT22;11328;53.928;18.522;2023-01-29T12:43:36;2.60;99.90
22321;DHT22;11328;53.928;18.522;2023-01-29T12:48:55;2.60;99.90
22321;DHT22;11328;53.928;18.522;2023-01-29T12:51:32;2.70;99.90
22321;DHT22;11328;53.928;18.522;2023-01-29T12:54:11;2.80;99.90
22321;DHT22;11328;53.928;18.522;2023-01-29T12:56:45;2.70;99.90
22321;DHT22;11328;53.928;18.522;2023-01-29T12:59:23;2.70;99.90
22321;DHT22;11328;53.928;18.522;2023-01-29T13:08:30;2.70;99.90
22321;DHT22;11328;53.928;18.522;2023-01-29T13:11:16;2.70;99.90
22321;DHT22;11328;53.928;18.522;2023-01-29T13:13:53;2.70;99.90
22321;DHT22;11328;53.928;18.522;2023-01-29T13:16:29;2.70;99.90
22321;DHT22;11328;53.928;18.522;2023-01-29T13:22:00;2.70;99.90
22321;DHT22;11328;53.928;18.522;2023-01-29T13:24:36;2.50;99.90
22321;DHT22;11328;53.928;18.522;2023-01-29T13:27:06;2.50;99.90
22321;DHT22;11328;53.928;18.522;2023-01-29T13:29:45;2.50;99.90
22321;DHT22;11328;53.928;18.522;2023-01-29T13:32:25;2.50;99.90
22321;DHT22;11328;53.928;18.522;2023-01-29T13:35:05;2.60;99.90
22321;DHT22;11328;53.928;18.522;2023-01-29T13:37:51;2.50;99.90
22321;DHT22;11328;53.928;18.522;2023-01-29T13:40:25;2.50;99.90
22321;DHT22;11328;53.928;18.522;2023-01-29T13:42:55;2.50;99.90
22321;DHT22;11328;53.928;18.522;2023-01-29T13:45:42;2.60;99.90
22321;DHT22;11328;53.928;18.522;2023-01-29T13:48:31;2.60;99.90
22321;DHT22;11328;53.928;18.522;2023-01-29T13:51:09;2.50;99.90
22321;DHT22;11328;53.928;18.522;2023-01-29T13:54:07;2.50;99.90
22321;DHT22;11328;53.928;18.522;2023-01-29T13:56:55;2.50;99.90
22321;DHT22;11328;53.928;18.522;2023-01-29T14:02:24;2.50;99.90
22321;DHT22;11328;53.928;18.522;2023-01-29T14:10:41;2.40;99.90
22321;DHT22;11328;53.928;18.522;2023-01-29T14:18:25;2.40;99.90
22321;DHT22;11328;53.928;18.522;2023-01-29T14:20:57;2.40;99.90
22321;DHT22;11328;53.928;18.522;2023-01-29T14:23:51;2.40;99.90
22321;DHT22;11328;53.928;18.522;2023-01-29T14:26:30;2.50;99.90
22321;DHT22;11328;53.928;18.522;2023-01-29T14:29:17;2.60;99.90
22321;DHT22;11328;53.928;18.522;2023-01-29T14:34:34;2.50;99.90
22321;DHT22;11328;53.928;18.522;2023-01-29T14:39:50;2.50;99.90
22321;DHT22;11328;53.928;18.522;2023-01-29T14:45:28;2.40;99.90
22321;DHT22;11328;53.928;18.522;2023-01-29T14:48:18;2.30;99.90
22321;DHT22;11328;53.928;18.522;2023-01-29T14:51:07;2.40;99.90
22321;DHT22;11328;53.928;18.522;2023-01-29T14:53:53;2.40;99.90
22321;DHT22;11328;53.928;18.522;2023-01-29T14:56:36;2.40;99.90
22321;DHT22;11328;53.928;18.522;2023-01-29T14:59:29;2.40;99.90
22321;DHT22;11328;53.928;18.522;2023-01-29T15:02:01;2.40;99.90
22321;DHT22;11328;53.928;18.522;2023-01-29T15:04:45;2.50;99.90
22321;DHT22;11328;53.928;18.522;2023-01-29T15:07:17;2.40;99.90
22321;DHT22;11328;53.928;18.522;2023-01-29T15:10:05;2.40;99.90
22321;DHT22;11328;53.928;18.522;2023-01-29T15:13:08;2.40;99.90
22321;DHT22;11328;53.928;18.522;2023-01-29T15:15:53;2.40;99.90
22321;DHT22;11328;53.928;18.522;2023-01-29T15:18:27;2.40;99.90
22321;DHT22;11328;53.928;18.522;2023-01-29T15:21:12;2.50;99.90
22321;DHT22;11328;53.928;18.522;2023-01-29T15:23:41;2.50;99.90
22321;DHT22;11328;53.928;18.522;2023-01-29T15:26:19;2.40;99.90
22321;DHT22;11328;53.928;18.522;2023-01-29T15:28:59;2.50;99.90
22321;DHT22;11328;53.928;18.522;2023-01-29T15:31:30;2.50;99.90
22321;DHT22;11328;53.928;18.522;2023-01-29T15:34:03;2.50;99.90
22321;DHT22;11328;53.928;18.522;2023-01-29T15:36:33;2.60;99.90
22321;DHT22;11328;53.928;18.522;2023-01-29T15:39:13;2.60;99.90
22321;DHT22;11328;53.928;18.522;2023-01-29T15:41:42;2.60;99.90
22321;DHT22;11328;53.928;18.522;2023-01-29T15:44:20;2.60;99.90
22321;DHT22;11328;53.928;18.522;2023-01-29T15:46:54;2.60;99.90
22321;DHT22;11328;53.928;18.522;2023-01-29T15:49:33;2.60;99.90
22321;DHT22;11328;53.928;18.522;2023-01-29T15:52:12;2.50;99.90
22321;DHT22;11328;53.928;18.522;2023-01-29T15:54:43;2.50;99.90
22321;DHT22;11328;53.928;18.522;2023-01-29T15:57:22;2.50;99.90
22321;DHT22;11328;53.928;18.522;2023-01-29T15:59:52;2.50;99.90
22321;DHT22;11328;53.928;18.522;2023-01-29T16:05:02;2.50;99.90
22321;DHT22;11328;53.928;18.522;2023-01-29T16:07:31;2.50;99.90
22321;DHT22;11328;53.928;18.522;2023-01-29T16:10:01;2.50;99.90
22321;DHT22;11328;53.928;18.522;2023-01-29T16:12:30;2.50;99.90
22321;DHT22;11328;53.928;18.522;2023-01-29T16:15:00;2.50;99.90
22321;DHT22;11328;53.928;18.522;2023-01-29T16:17:32;2.50;99.90
22321;DHT22;11328;53.928;18.522;2023-01-29T16:20:03;2.50;99.90
22321;DHT22;11328;53.928;18.522;2023-01-29T16:22:36;2.50;99.90
22321;DHT22;11328;53.928;18.522;2023-01-29T16:25:06;2.50;99.90
22321;DHT22;11328;53.928;18.522;2023-01-29T16:27:40;2.50;99.90
22321;DHT22;11328;53.928;18.522;2023-01-29T16:30:14;2.50;99.90
22321;DHT22;11328;53.928;18.522;2023-01-29T16:32:43;2.50;99.90
22321;DHT22;11328;53.928;18.522;2023-01-29T16:35:14;2.50;99.90
22321;DHT22;11328;53.928;18.522;2023-01-29T16:37:49;2.60;99.90
22321;DHT22;11328;53.928;18.522;2023-01-29T16:40:38;2.50;99.90
22321;DHT22;11328;53.928;18.522;2023-01-29T16:46:24;2.50;99.90
22321;DHT22;11328;53.928;18.522;2023-01-29T16:49:57;2.50;99.90
22321;DHT22;11328;53.928;18.522;2023-01-29T16:54:51;2.50;99.90
22321;DHT22;11328;53.928;18.522;2023-01-29T16:57:28;2.50;99.90
22321;DHT22;11328;53.928;18.522;2023-01-29T17:00:02;2.50;99.90
22321;DHT22;11328;53.928;18.522;2023-01-29T17:02:38;2.50;99.90
22321;DHT22;11328;53.928;18.522;2023-01-29T17:05:09;2.50;99.90
22321;DHT22;11328;53.928;18.522;2023-01-29T17:07:46;2.40;99.90
22321;DHT22;11328;53.928;18.522;2023-01-29T17:10:17;2.40;99.90
22321;DHT22;11328;53.928;18.522;2023-01-29T17:13:07;2.50;99.90
22321;DHT22;11328;53.928;18.522;2023-01-29T17:15:44;2.50;99.90
22321;DHT22;11328;53.928;18.522;2023-01-29T17:18:31;2.50;99.90
22321;DHT22;11328;53.928;18.522;2023-01-29T17:20:59;2.50;99.90
22321;DHT22;11328;53.928;18.522;2023-01-29T17:23:26;2.60;99.90
22321;DHT22;11328;53.928;18.522;2023-01-29T17:25:53;2.50;99.90
22321;DHT22;11328;53.928;18.522;2023-01-29T17:28:21;2.60;99.90
22321;DHT22;11328;53.928;18.522;2023-01-29T17:30:49;2.70;99.90
22321;DHT22;11328;53.928;18.522;2023-01-29T17:33:31;2.70;99.90
22321;DHT22;11328;53.928;18.522;2023-01-29T17:35:58;2.70;99.90
22321;DHT22;11328;53.928;18.522;2023-01-29T17:38:26;2.70;99.90
22321;DHT22;11328;53.928;18.522;2023-01-29T17:43:38;2.60;99.90
22321;DHT22;11328;53.928;18.522;2023-01-29T17:46:10;2.60;99.90
22321;DHT22;11328;53.928;18.522;2023-01-29T17:48:42;2.50;99.90
22321;DHT22;11328;53.928;18.522;2023-01-29T17:51:14;2.60;99.90
22321;DHT22;11328;53.928;18.522;2023-01-29T17:53:44;2.60;99.90
22321;DHT22;11328;53.928;18.522;2023-01-29T17:56:24;2.60;99.90
22321;DHT22;11328;53.928;18.522;2023-01-29T17:58:58;2.60;99.90
22321;DHT22;11328;53.928;18.522;2023-01-29T18:01:27;2.60;99.90
22321;DHT22;11328;53.928;18.522;2023-01-29T18:03:54;2.50;99.90
22321;DHT22;11328;53.928;18.522;2023-01-29T18:06:27;2.50;99.90
22321;DHT22;11328;53.928;18.522;2023-01-29T18:08:57;2.60;99.90
22321;DHT22;11328;53.928;18.522;2023-01-29T18:11:24;2.50;99.90
22321;DHT22;11328;53.928;18.522;2023-01-29T18:13:53;2.60;99.90
22321;DHT22;11328;53.928;18.522;2023-01-29T18:16:23;2.60;99.90
22321;DHT22;11328;53.928;18.522;2023-01-29T18:18:51;2.60;99.90
22321;DHT22;11328;53.928;18.522;2023-01-29T18:21:19;2.60;99.90
22321;DHT22;11328;53.928;18.522;2023-01-29T18:23:47;2.60;99.90
22321;DHT22;11328;53.928;18.522;2023-01-29T18:26:15;2.60;99.90
22321;DHT22;11328;53.928;18.522;2023-01-29T18:28:43;2.60;99.90
22321;DHT22;11328;53.928;18.522;2023-01-29T18:31:11;2.70;99.90
22321;DHT22;11328;53.928;18.522;2023-01-29T18:33:40;2.70;99.90
22321;DHT22;11328;53.928;18.522;2023-01-29T18:36:10;2.70;99.90
22321;DHT22;11328;53.928;18.522;2023-01-29T18:38:38;2.70;99.90
22321;DHT22;11328;53.928;18.522;2023-01-29T18:41:08;2.70;99.90
22321;DHT22;11328;53.928;18.522;2023-01-29T18:43:38;2.70;99.90
22321;DHT22;11328;53.928;18.522;2023-01-29T18:46:07;2.60;99.90
22321;DHT22;11328;53.928;18.522;2023-01-29T18:48:36;2.60;99.90
22321;DHT22;11328;53.928;18.522;2023-01-29T18:51:05;2.60;99.90
22321;DHT22;11328;53.928;18.522;2023-01-29T18:53:35;2.60;99.90
22321;DHT22;11328;53.928;18.522;2023-01-29T18:56:05;2.60;99.90